createdAt,value
2023-01-19T00:01:29.953Z,52.76
2023-01-19T00:03:57.981Z,52.33
2023-01-19T00:06:25.588Z,52.38
2023-01-19T00:08:54.225Z,52.63
2023-01-19T00:11:21.896Z,53.02
2023-01-19T00:13:50.927Z,53.26
2023-01-19T00:16:22.295Z,52.51
2023-01-19T00:18:51.368Z,53.15
2023-01-19T00:21:19.009Z,52.86
2023-01-19T00:23:48.286Z,52.65
2023-01-19T00:26:17.077Z,52.26
2023-01-19T00:28:44.781Z,52.80
2023-01-19T00:31:12.629Z,52.47
2023-01-19T00:33:41.973Z,53.17
2023-01-19T00:36:10.864Z,52.88
2023-01-19T00:38:38.913Z,52.82
2023-01-19T00:41:06.819Z,53.75
2023-01-19T00:43:33.501Z,53.00
2023-01-19T00:46:01.187Z,53.93
2023-01-19T00:48:29.440Z,52.88
2023-01-19T00:50:59.925Z,53.38
2023-01-19T00:53:29.075Z,53.20
2023-01-19T00:55:56.790Z,53.35
2023-01-19T00:58:26.454Z,53.83
2023-01-19T01:00:57.438Z,53.95
2023-01-19T01:03:28.624Z,53.39
2023-01-19T01:05:56.215Z,52.75
2023-01-19T01:08:25.383Z,53.72
2023-01-19T01:10:53.017Z,53.36
2023-01-19T01:13:22.343Z,53.01
2023-01-19T01:15:51.836Z,52.95
2023-01-19T01:18:19.463Z,54.20
2023-01-19T01:20:47.195Z,54.00
2023-01-19T01:23:14.932Z,53.38
2023-01-19T01:25:44.010Z,53.78
2023-01-19T01:28:11.620Z,52.85
2023-01-19T01:30:40.879Z,53.83
2023-01-19T01:33:08.519Z,52.91
2023-01-19T01:35:36.136Z,52.91
2023-01-19T01:38:03.885Z,53.38
2023-01-19T01:40:31.485Z,52.87
2023-01-19T01:43:00.880Z,53.33
2023-01-19T01:45:31.221Z,53.08
2023-01-19T01:48:02.978Z,52.93
2023-01-19T01:50:31.101Z,53.89
2023-01-19T01:53:06.397Z,53.06
2023-01-19T01:55:34.838Z,53.70
2023-01-19T01:58:04.655Z,52.64
2023-01-19T02:00:52.681Z,53.26
2023-01-19T02:03:19.457Z,53.61
2023-01-19T02:05:47.027Z,52.61
2023-01-19T02:08:34.284Z,53.36
2023-01-19T02:11:19.594Z,52.78
2023-01-19T02:13:48.507Z,53.00
2023-01-19T02:16:16.556Z,53.41
2023-01-19T02:18:45.219Z,53.62
2023-01-19T02:21:14.099Z,53.03
2023-01-19T02:23:44.931Z,52.77
2023-01-19T02:26:14.284Z,53.25
2023-01-19T02:28:44.343Z,52.77
2023-01-19T02:31:11.980Z,53.75
2023-01-19T02:33:39.638Z,52.93
2023-01-19T02:36:09.040Z,53.75
2023-01-19T02:38:36.728Z,53.48
2023-01-19T02:41:07.240Z,53.08
2023-01-19T02:43:34.906Z,53.67
2023-01-19T02:46:03.042Z,53.31
2023-01-19T02:48:30.701Z,52.31
2023-01-19T02:50:59.423Z,53.04
2023-01-19T02:53:56.603Z,52.90
2023-01-19T02:57:00.976Z,53.65
2023-01-19T02:59:37.093Z,52.85
2023-01-19T03:02:17.609Z,53.76
2023-01-19T03:04:54.793Z,53.69
2023-01-19T03:07:24.897Z,53.79
2023-01-19T03:09:53.995Z,53.08
2023-01-19T03:12:26.133Z,53.82
2023-01-19T03:14:53.983Z,52.78
2023-01-19T03:17:21.557Z,53.58
2023-01-19T03:19:49.550Z,53.24
2023-01-19T03:22:19.424Z,53.24
2023-01-19T03:24:47.243Z,52.86
2023-01-19T03:27:16.044Z,53.41
2023-01-19T03:29:47.633Z,53.62
2023-01-19T03:32:17.460Z,52.96
2023-01-19T03:34:45.003Z,53.31
2023-01-19T03:37:12.846Z,53.12
2023-01-19T03:39:42.124Z,53.46
2023-01-19T03:42:12.009Z,53.41
2023-01-19T03:44:40.241Z,53.29
2023-01-19T03:47:09.702Z,52.99
2023-01-19T03:49:37.731Z,52.64
2023-01-19T03:52:05.897Z,53.24
2023-01-19T03:54:33.555Z,53.38
2023-01-19T03:57:01.102Z,53.35
2023-01-19T03:59:28.772Z,53.92
2023-01-19T04:01:56.358Z,52.96
2023-01-19T04:04:25.856Z,53.39
2023-01-19T04:06:53.395Z,52.98
2023-01-19T04:09:21.069Z,52.72
2023-01-19T04:11:48.662Z,53.79
2023-01-19T04:14:16.408Z,53.66
2023-01-19T04:16:44.049Z,53.58
2023-01-19T04:19:11.640Z,54.08
2023-01-19T04:21:40.671Z,53.08
2023-01-19T04:24:10.077Z,54.02
2023-01-19T04:26:37.716Z,53.12
2023-01-19T04:29:05.514Z,53.46
2023-01-19T04:31:35.489Z,54.16
2023-01-19T04:34:03.136Z,53.31
2023-01-19T04:36:31.277Z,54.24
2023-01-19T04:39:00.283Z,54.44
2023-01-19T04:41:29.128Z,54.44
2023-01-19T04:43:57.895Z,54.65
2023-01-19T04:46:25.643Z,55.61
2023-01-19T04:48:53.188Z,55.11
2023-01-19T04:51:20.806Z,56.27
2023-01-19T04:53:48.388Z,55.83
2023-01-19T04:56:24.544Z,57.58
2023-01-19T04:58:52.195Z,56.67
2023-01-19T05:01:19.899Z,57.63
2023-01-19T05:03:47.463Z,57.92
2023-01-19T05:06:15.177Z,57.89
2023-01-19T05:08:44.609Z,58.22
2023-01-19T05:11:13.045Z,57.93
2023-01-19T05:13:41.986Z,59.02
2023-01-19T05:16:09.572Z,58.48
2023-01-19T05:18:37.358Z,59.30
2023-01-19T05:21:05.339Z,58.89
2023-01-19T05:23:32.981Z,59.51
2023-01-19T05:26:01.932Z,58.52
2023-01-19T05:28:29.867Z,59.58
2023-01-19T05:30:58.937Z,59.63
2023-01-19T05:33:27.630Z,58.81
2023-01-19T05:35:55.436Z,58.85
2023-01-19T05:38:34.347Z,59.36
2023-01-19T05:41:02.791Z,59.07
2023-01-19T05:43:30.583Z,59.01
2023-01-19T05:45:59.581Z,58.89
2023-01-19T05:48:27.221Z,58.84
2023-01-19T05:50:58.450Z,59.78
2023-01-19T05:53:26.502Z,59.29
2023-01-19T05:55:54.100Z,59.15
2023-01-19T05:58:21.810Z,58.92
2023-01-19T06:00:49.450Z,58.79
2023-01-19T06:03:18.836Z,59.34
2023-01-19T06:05:46.432Z,59.35
2023-01-19T06:08:14.283Z,59.42
2023-01-19T06:10:42.193Z,59.28
2023-01-19T06:13:11.117Z,59.62
2023-01-19T06:15:38.704Z,59.86
2023-01-19T06:20:42.525Z,59.07
2023-01-19T06:23:10.601Z,59.56
2023-01-19T06:25:39.312Z,59.99
2023-01-19T06:28:07.113Z,59.58
2023-01-19T06:30:35.905Z,59.28
2023-01-19T06:33:03.690Z,59.67
2023-01-19T06:35:33.784Z,59.66
2023-01-19T06:38:03.006Z,60.07
2023-01-19T06:40:30.635Z,59.05
2023-01-19T06:42:58.769Z,60.24
2023-01-19T06:45:26.780Z,59.82
2023-01-19T06:47:55.065Z,60.04
2023-01-19T06:50:22.941Z,58.97
2023-01-19T06:52:51.697Z,58.99
2023-01-19T06:55:20.857Z,59.02
2023-01-19T06:57:57.236Z,59.02
2023-01-19T07:00:25.253Z,59.58
2023-01-19T07:02:53.258Z,59.49
2023-01-19T07:05:22.136Z,59.34
2023-01-19T07:07:53.609Z,59.79
2023-01-19T07:10:22.686Z,59.99
2023-01-19T07:12:50.365Z,59.99
2023-01-19T07:15:19.476Z,59.42
2023-01-19T07:17:47.394Z,59.70
2023-01-19T07:20:15.304Z,60.01
2023-01-19T07:22:45.660Z,59.86
2023-01-19T07:25:14.160Z,59.04
2023-01-19T07:27:45.083Z,59.83
2023-01-19T07:30:15.960Z,59.91
2023-01-19T07:32:43.625Z,59.63
2023-01-19T07:35:13.314Z,59.59
2023-01-19T07:37:40.890Z,58.70
2023-01-19T07:40:10.034Z,59.71
2023-01-19T07:42:37.985Z,59.53
2023-01-19T07:45:08.327Z,59.30
2023-01-19T07:47:35.980Z,58.97
2023-01-19T07:50:03.752Z,59.86
2023-01-19T07:52:31.560Z,59.25
2023-01-19T07:57:27.515Z,59.09
2023-01-19T07:59:55.117Z,59.45
2023-01-19T08:02:24.343Z,59.20
2023-01-19T08:04:52.008Z,58.70
2023-01-19T08:07:19.848Z,58.92
2023-01-19T08:09:47.435Z,58.75
2023-01-19T08:12:15.096Z,59.45
2023-01-19T08:14:42.809Z,58.79
2023-01-19T08:17:12.303Z,59.70
2023-01-19T08:19:41.685Z,59.18
2023-01-19T08:22:09.371Z,59.64
2023-01-19T08:24:39.414Z,59.46
2023-01-19T08:27:09.733Z,58.80
2023-01-19T08:29:37.384Z,58.83
2023-01-19T08:32:06.709Z,58.50
2023-01-19T08:34:34.432Z,58.62
2023-01-19T08:37:06.055Z,59.32
2023-01-19T08:39:36.682Z,59.42
2023-01-19T08:42:05.819Z,58.70
2023-01-19T08:44:33.422Z,59.48
2023-01-19T08:47:02.601Z,59.09
2023-01-19T08:49:33.363Z,58.35
2023-01-19T08:52:03.285Z,59.37
2023-01-19T08:54:32.244Z,58.86
2023-01-19T08:57:00.139Z,58.84
2023-01-19T08:59:27.868Z,58.99
2023-01-19T09:01:55.558Z,59.13
2023-01-19T09:04:23.451Z,59.15
2023-01-19T09:06:51.148Z,58.40
2023-01-19T09:09:18.882Z,59.20
2023-01-19T09:11:47.995Z,59.28
2023-01-19T09:14:15.703Z,58.77
2023-01-19T09:16:43.452Z,59.25
2023-01-19T09:19:11.086Z,58.90
2023-01-19T09:21:38.907Z,58.62
2023-01-19T09:24:07.057Z,58.86
2023-01-19T09:26:36.500Z,58.24
2023-01-19T09:29:05.495Z,58.50
2023-01-19T09:31:33.117Z,58.27
2023-01-19T09:34:00.747Z,58.80
2023-01-19T09:36:28.433Z,58.98
2023-01-19T09:38:56.044Z,58.55
2023-01-19T09:41:25.019Z,58.87
2023-01-19T09:43:54.334Z,58.46
2023-01-19T09:46:25.518Z,58.52
2023-01-19T09:48:53.753Z,58.67
2023-01-19T09:51:22.946Z,58.64
2023-01-19T09:53:56.793Z,58.33
2023-01-19T09:56:24.749Z,58.19
2023-01-19T09:58:52.545Z,58.77
2023-01-19T10:01:27.411Z,58.31
2023-01-19T10:04:03.745Z,58.45
2023-01-19T10:06:31.328Z,58.35
2023-01-19T10:09:04.066Z,57.95
2023-01-19T10:11:41.953Z,57.87
2023-01-19T10:14:17.104Z,57.78
2023-01-19T10:16:50.169Z,58.35
2023-01-19T10:19:22.567Z,58.30
2023-01-19T10:21:50.226Z,57.72
2023-01-19T10:24:20.530Z,57.79
2023-01-19T10:26:49.017Z,58.09
2023-01-19T10:29:20.719Z,58.68
2023-01-19T10:31:49.720Z,58.84
2023-01-19T10:34:22.312Z,57.84
2023-01-19T10:36:51.439Z,58.25
2023-01-19T10:39:19.629Z,57.92
2023-01-19T10:41:50.478Z,58.19
2023-01-19T10:44:24.313Z,57.98
2023-01-19T10:46:54.630Z,57.97
2023-01-19T10:49:28.362Z,58.26
2023-01-19T10:51:56.175Z,57.71
2023-01-19T10:54:23.934Z,57.72
2023-01-19T10:56:52.406Z,58.11
2023-01-19T10:59:36.825Z,58.52
2023-01-19T11:02:17.559Z,58.25
2023-01-19T11:04:48.989Z,58.66
2023-01-19T11:07:20.674Z,57.84
2023-01-19T11:09:48.420Z,58.39
2023-01-19T11:12:20.260Z,58.63
2023-01-19T11:14:48.882Z,57.98
2023-01-19T11:17:23.233Z,58.10
2023-01-19T11:19:56.028Z,57.79
2023-01-19T11:22:26.972Z,57.83
2023-01-19T11:24:57.934Z,57.75
2023-01-19T11:27:25.659Z,57.95
2023-01-19T11:29:58.378Z,58.14
2023-01-19T11:32:27.375Z,57.76
2023-01-19T11:34:55.207Z,57.66
2023-01-19T11:37:31.083Z,57.59
2023-01-19T11:39:59.716Z,57.77
2023-01-19T11:42:27.697Z,57.85
2023-01-19T11:44:59.739Z,57.09
2023-01-19T11:47:30.300Z,57.33
2023-01-19T11:50:00.248Z,57.19
2023-01-19T11:52:29.806Z,57.40
2023-01-19T11:55:00.965Z,57.10
2023-01-19T11:57:28.658Z,57.28
2023-01-19T11:59:56.390Z,57.02
2023-01-19T12:02:28.345Z,57.04
2023-01-19T12:04:58.231Z,57.25
2023-01-19T12:07:28.994Z,57.14
2023-01-19T12:10:00.106Z,57.18
2023-01-19T12:12:29.724Z,57.80
2023-01-19T12:15:00.793Z,56.93
2023-01-19T12:17:31.570Z,56.99
2023-01-19T12:20:05.014Z,57.17
2023-01-19T12:25:17.275Z,57.33
2023-01-19T12:27:46.401Z,57.06
2023-01-19T12:30:18.746Z,57.42
2023-01-19T12:32:46.872Z,57.27
2023-01-19T12:35:52.163Z,57.17
2023-01-19T12:38:36.921Z,57.32
2023-01-19T12:41:27.295Z,57.40
2023-01-19T12:44:27.635Z,57.25
2023-01-19T12:46:57.257Z,57.37
2023-01-19T12:49:29.209Z,56.73
2023-01-19T12:52:12.393Z,57.35
2023-01-19T12:54:43.327Z,57.09
2023-01-19T12:57:21.972Z,57.61
2023-01-19T12:59:53.553Z,57.13
2023-01-19T13:02:53.204Z,57.17
2023-01-19T13:05:25.799Z,57.20
2023-01-19T13:08:15.852Z,57.25
2023-01-19T13:11:14.111Z,57.22
2023-01-19T13:13:42.170Z,57.07
2023-01-19T13:16:46.884Z,57.23
2023-01-19T13:19:19.278Z,57.61
2023-01-19T13:21:47.538Z,57.26
2023-01-19T13:24:16.482Z,57.37
2023-01-19T13:26:54.793Z,57.27
2023-01-19T13:29:26.039Z,57.47
2023-01-19T13:31:54.813Z,57.61
2023-01-19T13:34:23.604Z,57.49
2023-01-19T13:36:52.292Z,57.37
2023-01-19T13:39:25.661Z,57.41
2023-01-19T13:41:55.740Z,57.42
2023-01-19T13:44:26.312Z,57.26
2023-01-19T13:46:54.041Z,57.17
2023-01-19T13:49:23.945Z,57.54
2023-01-19T13:52:05.813Z,56.94
2023-01-19T13:54:33.527Z,57.02
2023-01-19T13:57:02.613Z,57.82
2023-01-19T13:59:30.249Z,57.47
2023-01-19T14:01:58.127Z,57.31
2023-01-19T14:04:27.156Z,57.39
2023-01-19T14:06:55.637Z,57.20
2023-01-19T14:09:23.301Z,57.28
2023-01-19T14:12:11.589Z,57.19
2023-01-19T14:14:39.212Z,57.26
2023-01-19T14:17:24.993Z,56.74
2023-01-19T14:19:53.283Z,57.23
2023-01-19T14:22:21.001Z,57.09
2023-01-19T14:24:48.566Z,57.01
2023-01-19T14:27:22.622Z,57.17
2023-01-19T14:29:53.524Z,57.27
2023-01-19T14:32:21.914Z,57.01
2023-01-19T14:34:50.225Z,57.00
2023-01-19T14:37:20.986Z,56.91
2023-01-19T14:39:50.097Z,57.25
2023-01-19T14:42:22.032Z,57.01
2023-01-19T14:44:50.940Z,56.87
2023-01-19T14:47:26.202Z,57.02
2023-01-19T14:49:53.952Z,57.09
2023-01-19T14:52:22.564Z,57.13
2023-01-19T14:54:50.204Z,57.11
2023-01-19T14:57:17.934Z,57.35
2023-01-19T14:59:49.544Z,57.12
2023-01-19T15:02:18.489Z,56.93
2023-01-19T15:04:47.831Z,56.98
2023-01-19T15:07:18.074Z,56.86
2023-01-19T15:10:13.751Z,56.77
2023-01-19T15:12:41.360Z,56.78
2023-01-19T15:15:15.759Z,56.74
2023-01-19T15:17:43.445Z,56.47
2023-01-19T15:20:16.956Z,56.84
2023-01-19T15:22:44.986Z,56.52
2023-01-19T15:25:15.862Z,56.64
2023-01-19T15:27:43.987Z,56.24
2023-01-19T15:30:17.303Z,57.08
2023-01-19T15:32:46.074Z,56.75
2023-01-19T15:35:17.085Z,56.86
2023-01-19T15:37:46.984Z,56.50
2023-01-19T15:40:14.927Z,57.05
2023-01-19T15:42:46.603Z,56.90
2023-01-19T15:45:34.574Z,56.71
2023-01-19T15:48:02.416Z,56.53
2023-01-19T15:50:30.177Z,56.28
2023-01-19T15:52:57.833Z,56.53
2023-01-19T15:55:25.743Z,56.43
2023-01-19T15:57:53.384Z,57.09
2023-01-19T16:00:21.425Z,57.07
2023-01-19T16:02:52.050Z,57.24
2023-01-19T16:05:19.819Z,56.93
2023-01-19T16:07:47.707Z,56.95
2023-01-19T16:10:16.866Z,56.82
2023-01-19T16:12:46.451Z,56.93
2023-01-19T16:15:14.300Z,56.96
2023-01-19T16:17:41.989Z,56.90
2023-01-19T16:20:14.471Z,56.73
2023-01-19T16:22:42.527Z,57.70
2023-01-19T16:25:10.611Z,56.53
2023-01-19T16:27:38.253Z,57.10
2023-01-19T16:30:07.053Z,57.05
2023-01-19T16:32:36.403Z,57.05
2023-01-19T16:35:04.014Z,57.03
2023-01-19T16:37:33.037Z,56.76
2023-01-19T16:40:00.712Z,56.79
2023-01-19T16:42:28.438Z,56.90
2023-01-19T16:44:56.108Z,57.20
2023-01-19T16:47:23.834Z,56.57
2023-01-19T16:49:51.399Z,56.84
2023-01-19T16:52:19.082Z,56.68
2023-01-19T16:54:48.043Z,56.59
2023-01-19T16:57:15.732Z,56.50
2023-01-19T16:59:45.014Z,56.51
2023-01-19T17:02:12.795Z,57.03
2023-01-19T17:04:40.456Z,56.91
2023-01-19T17:07:08.100Z,56.68
2023-01-19T17:09:35.719Z,56.89
2023-01-19T17:12:05.215Z,56.76
2023-01-19T17:14:33.374Z,56.97
2023-01-19T17:17:02.200Z,56.85
2023-01-19T17:19:29.861Z,56.96
2023-01-19T17:21:57.449Z,57.07
2023-01-19T17:24:25.063Z,57.08
2023-01-19T17:26:52.661Z,56.93
2023-01-19T17:29:21.592Z,56.92
2023-01-19T17:31:50.813Z,57.14
2023-01-19T17:34:18.408Z,56.65
2023-01-19T17:36:46.152Z,56.28
2023-01-19T17:39:14.831Z,56.65
2023-01-19T17:41:42.649Z,56.17
2023-01-19T17:44:10.333Z,56.47
2023-01-19T17:46:39.427Z,56.30
2023-01-19T17:49:15.482Z,56.39
2023-01-19T17:51:43.054Z,56.68
2023-01-19T17:54:12.413Z,56.78
2023-01-19T17:56:41.236Z,56.53
2023-01-19T17:59:10.002Z,56.88
2023-01-19T18:01:40.325Z,56.28
2023-01-19T18:04:08.237Z,56.31
2023-01-19T18:06:35.917Z,56.27
2023-01-19T18:09:04.905Z,56.60
2023-01-19T18:11:32.487Z,56.38
2023-01-19T18:14:00.686Z,56.61
2023-01-19T18:16:29.900Z,56.10
2023-01-19T18:18:58.946Z,56.57
2023-01-19T18:21:28.023Z,56.41
2023-01-19T18:24:00.029Z,56.08
2023-01-19T18:26:27.720Z,56.19
2023-01-19T18:28:56.436Z,56.57
2023-01-19T18:31:24.637Z,56.10
2023-01-19T18:33:52.620Z,56.27
2023-01-19T18:36:21.894Z,56.11
2023-01-19T18:38:49.921Z,56.34
2023-01-19T18:41:18.591Z,55.88
2023-01-19T18:43:46.573Z,56.20
2023-01-19T18:46:14.647Z,55.70
2023-01-19T18:48:43.570Z,56.39
2023-01-19T18:51:12.151Z,56.17
2023-01-19T18:53:41.322Z,55.79
2023-01-19T18:56:17.266Z,55.49
2023-01-19T18:58:45.415Z,55.49
2023-01-19T19:01:25.468Z,55.83
2023-01-19T19:03:53.516Z,56.04
2023-01-19T19:06:21.739Z,55.78
2023-01-19T19:08:51.180Z,55.61
2023-01-19T19:11:19.248Z,55.62
2023-01-19T19:13:47.277Z,55.53
2023-01-19T19:16:15.596Z,55.01
2023-01-19T19:18:43.630Z,55.39
2023-01-19T19:21:14.303Z,55.36
2023-01-19T19:23:42.027Z,55.66
2023-01-19T19:26:11.875Z,55.65
2023-01-19T19:28:40.319Z,55.13
2023-01-19T19:31:09.181Z,55.10
2023-01-19T19:33:37.053Z,55.05
2023-01-19T19:36:05.298Z,55.46
2023-01-19T19:38:33.085Z,55.41
2023-01-19T19:41:00.954Z,55.19
2023-01-19T19:43:32.631Z,55.68
2023-01-19T19:46:00.501Z,55.56
2023-01-19T19:48:28.274Z,55.62
2023-01-19T19:50:56.694Z,55.68
2023-01-19T19:53:26.395Z,55.26
2023-01-19T19:55:58.028Z,55.34
2023-01-19T19:58:25.711Z,55.56
2023-01-19T20:00:55.089Z,55.55
2023-01-19T20:03:22.786Z,55.29
2023-01-19T20:05:50.729Z,55.71
2023-01-19T20:08:18.385Z,55.06
2023-01-19T20:10:46.166Z,55.43
2023-01-19T20:13:15.748Z,55.46
2023-01-19T20:15:43.633Z,55.41
2023-01-19T20:18:12.950Z,55.78
2023-01-19T20:20:40.689Z,55.36
2023-01-19T20:23:08.451Z,55.78
2023-01-19T20:25:39.387Z,55.30
2023-01-19T20:28:07.210Z,55.44
2023-01-19T20:30:35.017Z,55.12
2023-01-19T20:33:02.961Z,55.51
2023-01-19T20:35:32.021Z,55.26
2023-01-19T20:37:59.821Z,55.42
2023-01-19T20:40:27.534Z,55.00
2023-01-19T20:42:55.147Z,55.54
2023-01-19T20:45:25.928Z,55.81
2023-01-19T20:47:54.338Z,55.52
2023-01-19T20:50:22.114Z,55.46
2023-01-19T20:52:51.477Z,55.82
2023-01-19T20:55:42.120Z,55.73
2023-01-19T20:58:09.809Z,55.28
2023-01-19T21:00:37.693Z,55.44
2023-01-19T21:03:05.512Z,55.52
2023-01-19T21:05:33.242Z,55.42
2023-01-19T21:08:02.260Z,55.53
2023-01-19T21:10:30.319Z,55.69
2023-01-19T21:12:57.921Z,56.44
2023-01-19T21:15:25.655Z,55.69
2023-01-19T21:17:53.416Z,55.76
2023-01-19T21:20:21.306Z,56.16
2023-01-19T21:22:48.922Z,56.31
2023-01-19T21:25:18.120Z,55.91
2023-01-19T21:27:45.972Z,55.88
2023-01-19T21:30:13.898Z,56.33
2023-01-19T21:32:41.716Z,56.08
2023-01-19T21:35:09.729Z,55.60
2023-01-19T21:37:37.459Z,55.49
2023-01-19T21:40:06.014Z,56.01
2023-01-19T21:42:35.413Z,55.68
2023-01-19T21:45:04.430Z,55.95
2023-01-19T21:47:32.130Z,55.87
2023-01-19T21:50:01.296Z,55.98
2023-01-19T21:52:29.050Z,55.44
2023-01-19T21:54:56.900Z,55.50
2023-01-19T21:57:24.566Z,55.70
2023-01-19T21:59:53.593Z,55.97
2023-01-19T22:02:37.192Z,55.64
2023-01-19T22:05:07.076Z,55.81
2023-01-19T22:07:34.745Z,55.78
2023-01-19T22:10:02.348Z,55.78
2023-01-19T22:12:30.156Z,55.64
2023-01-19T22:14:59.217Z,55.68
2023-01-19T22:17:26.908Z,55.59
2023-01-19T22:19:54.512Z,55.05
2023-01-19T22:22:28.390Z,55.56
2023-01-19T22:24:56.161Z,55.51
2023-01-19T22:27:24.655Z,55.17
2023-01-19T22:29:52.574Z,55.22
2023-01-19T22:32:21.705Z,55.61
2023-01-19T22:34:49.436Z,55.55
2023-01-19T22:37:17.101Z,55.12
2023-01-19T22:39:44.730Z,55.48
2023-01-19T22:42:12.454Z,55.70
2023-01-19T22:44:40.294Z,55.25
2023-01-19T22:47:08.055Z,55.44
2023-01-19T22:49:37.087Z,55.77
2023-01-19T22:52:05.089Z,55.78
2023-01-19T22:54:32.758Z,55.75
2023-01-19T22:57:00.645Z,55.66
2023-01-19T22:59:32.009Z,55.31
2023-01-19T23:02:01.034Z,55.58
2023-01-19T23:04:28.878Z,55.76
2023-01-19T23:06:58.023Z,55.64
2023-01-19T23:09:25.911Z,55.24
2023-01-19T23:11:53.617Z,55.47
2023-01-19T23:14:21.928Z,55.69
2023-01-19T23:16:49.648Z,55.13
2023-01-19T23:19:18.295Z,55.18
2023-01-19T23:21:46.332Z,55.29
2023-01-19T23:24:15.617Z,55.50
2023-01-19T23:26:43.634Z,55.77
2023-01-19T23:29:12.479Z,55.60
2023-01-19T23:31:40.837Z,55.66
2023-01-19T23:34:09.578Z,55.28
2023-01-19T23:36:38.414Z,55.19
2023-01-19T23:39:09.750Z,55.22
2023-01-19T23:41:39.802Z,55.35
2023-01-19T23:44:07.376Z,55.20
2023-01-19T23:46:35.165Z,55.19
2023-01-19T23:49:06.091Z,55.57
2023-01-19T23:51:34.971Z,55.76
2023-01-19T23:54:02.960Z,55.43
2023-01-19T23:56:36.265Z,55.23
2023-01-19T23:59:06.959Z,55.22
